sensor_id;sensor_type;location;lat;lon;timestamp;pressure;altitude;pressure_sealevel;temperature;humidity
70909;BME280;58554;52.006;5.926;2022-12-18T00:01:48;102041.31;;;-5.76;78.94
70909;BME280;58554;52.006;5.926;2022-12-18T00:04:18;102037.72;;;-5.81;78.87
70909;BME280;58554;52.006;5.926;2022-12-18T00:06:47;102027.22;;;-5.89;78.96
70909;BME280;58554;52.006;5.926;2022-12-18T00:09:14;102022.78;;;-5.93;79.12
70909;BME280;58554;52.006;5.926;2022-12-18T00:11:43;102016.59;;;-5.98;78.99
70909;BME280;58554;52.006;5.926;2022-12-18T00:14:11;102007.94;;;-6.02;79.07
70909;BME280;58554;52.006;5.926;2022-12-18T00:16:39;102010.34;;;-6.06;79.10
70909;BME280;58554;52.006;5.926;2022-12-18T00:19:10;102012.72;;;-6.13;78.90
70909;BME280;58554;52.006;5.926;2022-12-18T00:21:40;102016.03;;;-6.17;79.16
70909;BME280;58554;52.006;5.926;2022-12-18T00:24:08;102018.53;;;-6.20;79.13
70909;BME280;58554;52.006;5.926;2022-12-18T00:26:37;102010.66;;;-6.24;79.16
70909;BME280;58554;52.006;5.926;2022-12-18T00:29:10;102019.19;;;-6.25;79.31
70909;BME280;58554;52.006;5.926;2022-12-18T00:31:39;102018.25;;;-6.29;79.42
70909;BME280;58554;52.006;5.926;2022-12-18T00:34:06;102011.28;;;-6.32;79.34
70909;BME280;58554;52.006;5.926;2022-12-18T00:36:35;102002.53;;;-6.37;79.26
70909;BME280;58554;52.006;5.926;2022-12-18T00:39:04;101999.91;;;-6.38;79.20
70909;BME280;58554;52.006;5.926;2022-12-18T00:41:31;101998.06;;;-6.42;79.06
70909;BME280;58554;52.006;5.926;2022-12-18T00:43:58;102006.56;;;-6.45;79.33
70909;BME280;58554;52.006;5.926;2022-12-18T00:46:28;102009.94;;;-6.47;79.30
70909;BME280;58554;52.006;5.926;2022-12-18T00:48:54;102005.53;;;-6.50;79.24
70909;BME280;58554;52.006;5.926;2022-12-18T00:51:21;102008.88;;;-6.53;79.36
70909;BME280;58554;52.006;5.926;2022-12-18T00:53:47;102008.78;;;-6.56;79.13
70909;BME280;58554;52.006;5.926;2022-12-18T00:56:14;102021.53;;;-6.59;79.47
70909;BME280;58554;52.006;5.926;2022-12-18T00:58:40;102014.59;;;-6.61;79.58
70909;BME280;58554;52.006;5.926;2022-12-18T01:01:07;102018.03;;;-6.62;79.46
70909;BME280;58554;52.006;5.926;2022-12-18T01:03:36;102014.53;;;-6.64;79.21
70909;BME280;58554;52.006;5.926;2022-12-18T01:06:05;102021.31;;;-6.66;79.41
70909;BME280;58554;52.006;5.926;2022-12-18T01:08:32;102015.25;;;-6.68;79.26
70909;BME280;58554;52.006;5.926;2022-12-18T01:10:59;102024.59;;;-6.71;79.25
70909;BME280;58554;52.006;5.926;2022-12-18T01:13:29;102021.09;;;-6.73;79.42
70909;BME280;58554;52.006;5.926;2022-12-18T01:15:55;102005.56;;;-6.76;79.32
70909;BME280;58554;52.006;5.926;2022-12-18T01:18:23;101992.63;;;-6.77;79.30
70909;BME280;58554;52.006;5.926;2022-12-18T01:20:52;101998.63;;;-6.78;79.32
70909;BME280;58554;52.006;5.926;2022-12-18T01:23:18;101991.69;;;-6.81;79.32
70909;BME280;58554;52.006;5.926;2022-12-18T01:25:45;101993.25;;;-6.84;79.41
70909;BME280;58554;52.006;5.926;2022-12-18T01:28:11;101997.47;;;-6.86;79.25
70909;BME280;58554;52.006;5.926;2022-12-18T01:30:38;101993.97;;;-6.88;79.20
70909;BME280;58554;52.006;5.926;2022-12-18T01:33:05;101993.06;;;-6.91;79.16
70909;BME280;58554;52.006;5.926;2022-12-18T01:35:31;101997.28;;;-6.93;79.18
70909;BME280;58554;52.006;5.926;2022-12-18T01:38:01;102000.66;;;-6.95;79.09
70909;BME280;58554;52.006;5.926;2022-12-18T01:40:27;102013.34;;;-7.00;79.10
70909;BME280;58554;52.006;5.926;2022-12-18T01:42:54;102010.66;;;-7.03;79.05
70909;BME280;58554;52.006;5.926;2022-12-18T01:45:24;102014.88;;;-7.05;78.96
70909;BME280;58554;52.006;5.926;2022-12-18T01:47:54;102027.63;;;-7.08;79.29
70909;BME280;58554;52.006;5.926;2022-12-18T01:50:24;102022.44;;;-7.09;79.19
70909;BME280;58554;52.006;5.926;2022-12-18T01:52:58;102014.66;;;-7.11;79.21
70909;BME280;58554;52.006;5.926;2022-12-18T01:55:35;102014.72;;;-7.09;79.08
70909;BME280;58554;52.006;5.926;2022-12-18T01:58:06;102007.81;;;-7.11;79.06
70909;BME280;58554;52.006;5.926;2022-12-18T02:00:32;102012.03;;;-7.13;79.25
70909;BME280;58554;52.006;5.926;2022-12-18T02:02:59;102007.78;;;-7.12;79.11
70909;BME280;58554;52.006;5.926;2022-12-18T02:05:35;102020.56;;;-7.14;79.30
70909;BME280;58554;52.006;5.926;2022-12-18T02:08:16;102022.28;;;-7.14;79.11
70909;BME280;58554;52.006;5.926;2022-12-18T02:10:55;102021.28;;;-7.18;79.19
70909;BME280;58554;52.006;5.926;2022-12-18T02:13:32;102023.78;;;-7.19;79.11
70909;BME280;58554;52.006;5.926;2022-12-18T02:16:12;102019.50;;;-7.20;79.18
70909;BME280;58554;52.006;5.926;2022-12-18T02:18:50;102027.94;;;-7.23;79.03
70909;BME280;58554;52.006;5.926;2022-12-18T02:21:28;102026.13;;;-7.25;79.09
70909;BME280;58554;52.006;5.926;2022-12-18T02:24:18;102015.84;;;-7.27;79.12
70909;BME280;58554;52.006;5.926;2022-12-18T02:26:59;102009.78;;;-7.27;79.25
70909;BME280;58554;52.006;5.926;2022-12-18T02:29:35;102013.19;;;-7.28;79.30
70909;BME280;58554;52.006;5.926;2022-12-18T02:32:09;102015.69;;;-7.30;79.24
70909;BME280;58554;52.006;5.926;2022-12-18T02:34:40;102016.53;;;-7.31;79.24
70909;BME280;58554;52.006;5.926;2022-12-18T02:37:13;102021.63;;;-7.33;79.17
70909;BME280;58554;52.006;5.926;2022-12-18T02:39:46;102016.41;;;-7.34;79.13
70909;BME280;58554;52.006;5.926;2022-12-18T02:42:18;102018.06;;;-7.36;79.10
70909;BME280;58554;52.006;5.926;2022-12-18T02:44:47;102018.81;;;-7.39;79.00
70909;BME280;58554;52.006;5.926;2022-12-18T02:47:17;102016.19;;;-7.40;79.04
70909;BME280;58554;52.006;5.926;2022-12-18T02:49:54;102006.69;;;-7.43;79.15
70909;BME280;58554;52.006;5.926;2022-12-18T02:52:33;101997.19;;;-7.45;79.08
70909;BME280;58554;52.006;5.926;2022-12-18T02:55:18;102003.97;;;-7.47;79.02
70909;BME280;58554;52.006;5.926;2022-12-18T02:58:04;102002.13;;;-7.50;79.10
70909;BME280;58554;52.006;5.926;2022-12-18T03:00:41;102003.75;;;-7.52;78.92
70909;BME280;58554;52.006;5.926;2022-12-18T03:03:19;102012.31;;;-7.53;79.09
70909;BME280;58554;52.006;5.926;2022-12-18T03:05:56;102011.38;;;-7.55;79.30
70909;BME280;58554;52.006;5.926;2022-12-18T03:08:29;102002.72;;;-7.57;78.91
70909;BME280;58554;52.006;5.926;2022-12-18T03:11:04;101999.22;;;-7.59;78.97
70909;BME280;58554;52.006;5.926;2022-12-18T03:13:39;101999.22;;;-7.59;79.12
70909;BME280;58554;52.006;5.926;2022-12-18T03:16:15;101992.34;;;-7.60;79.07
70909;BME280;58554;52.006;5.926;2022-12-18T03:18:52;101993.22;;;-7.60;79.05
70909;BME280;58554;52.006;5.926;2022-12-18T03:21:28;101999.16;;;-7.61;79.16
70909;BME280;58554;52.006;5.926;2022-12-18T03:24:00;101994.94;;;-7.60;79.17
70909;BME280;58554;52.006;5.926;2022-12-18T03:26:31;101994.03;;;-7.61;79.22
70909;BME280;58554;52.006;5.926;2022-12-18T03:29:06;101986.28;;;-7.62;79.25
70909;BME280;58554;52.006;5.926;2022-12-18T03:31:40;101988.78;;;-7.64;78.97
70909;BME280;58554;52.006;5.926;2022-12-18T03:34:14;101987.88;;;-7.66;78.84
70909;BME280;58554;52.006;5.926;2022-12-18T03:36:46;101974.91;;;-7.69;78.96
70909;BME280;58554;52.006;5.926;2022-12-18T03:39:13;101974.78;;;-7.72;78.70
70909;BME280;58554;52.006;5.926;2022-12-18T03:41:44;101969.53;;;-7.75;78.85
70909;BME280;58554;52.006;5.926;2022-12-18T03:44:21;101968.59;;;-7.77;78.99
70909;BME280;58554;52.006;5.926;2022-12-18T03:46:58;101967.72;;;-7.78;79.01
70909;BME280;58554;52.006;5.926;2022-12-18T03:49:35;101960.88;;;-7.79;78.91
70909;BME280;58554;52.006;5.926;2022-12-18T03:52:09;101957.41;;;-7.79;79.13
70909;BME280;58554;52.006;5.926;2022-12-18T03:54:42;101966.09;;;-7.76;79.10
70909;BME280;58554;52.006;5.926;2022-12-18T03:57:14;101957.53;;;-7.76;79.23
70909;BME280;58554;52.006;5.926;2022-12-18T03:59:50;101959.25;;;-7.75;79.36
70909;BME280;58554;52.006;5.926;2022-12-18T04:02:23;101956.75;;;-7.74;79.30
70909;BME280;58554;52.006;5.926;2022-12-18T04:04:52;101961.91;;;-7.74;79.45
70909;BME280;58554;52.006;5.926;2022-12-18T04:07:23;101956.75;;;-7.74;79.42
70909;BME280;58554;52.006;5.926;2022-12-18T04:09:51;101961.09;;;-7.73;79.13
70909;BME280;58554;52.006;5.926;2022-12-18T04:12:24;101960.09;;;-7.76;79.21
70909;BME280;58554;52.006;5.926;2022-12-18T04:14:54;101956.66;;;-7.77;79.12
70909;BME280;58554;52.006;5.926;2022-12-18T04:17:20;101959.09;;;-7.80;79.07
70909;BME280;58554;52.006;5.926;2022-12-18T04:19:48;101960.88;;;-7.79;79.15
70909;BME280;58554;52.006;5.926;2022-12-18T04:22:15;101951.41;;;-7.80;79.19
70909;BME280;58554;52.006;5.926;2022-12-18T04:24:41;101948.81;;;-7.80;79.24
70909;BME280;58554;52.006;5.926;2022-12-18T04:27:08;101947.13;;;-7.79;79.50
70909;BME280;58554;52.006;5.926;2022-12-18T04:29:34;101945.47;;;-7.79;79.35
70909;BME280;58554;52.006;5.926;2022-12-18T04:32:04;101940.34;;;-7.77;79.32
70909;BME280;58554;52.006;5.926;2022-12-18T04:34:31;101936.13;;;-7.77;79.43
70909;BME280;58554;52.006;5.926;2022-12-18T04:36:57;101944.75;;;-7.75;79.36
70909;BME280;58554;52.006;5.926;2022-12-18T04:39:24;101942.22;;;-7.73;79.23
70909;BME280;58554;52.006;5.926;2022-12-18T04:41:50;101941.34;;;-7.74;79.26
70909;BME280;58554;52.006;5.926;2022-12-18T04:44:17;101934.56;;;-7.72;79.41
70909;BME280;58554;52.006;5.926;2022-12-18T04:46:44;101928.56;;;-7.72;79.38
70909;BME280;58554;52.006;5.926;2022-12-18T04:49:13;101941.47;;;-7.70;79.26
70909;BME280;58554;52.006;5.926;2022-12-18T04:51:39;101950.06;;;-7.70;79.29
70909;BME280;58554;52.006;5.926;2022-12-18T04:54:06;101944.97;;;-7.68;79.36
70909;BME280;58554;52.006;5.926;2022-12-18T04:56:32;101946.63;;;-7.70;79.20
70909;BME280;58554;52.006;5.926;2022-12-18T04:58:59;101942.28;;;-7.72;79.11
70909;BME280;58554;52.006;5.926;2022-12-18T05:01:25;101939.78;;;-7.70;79.45
70909;BME280;58554;52.006;5.926;2022-12-18T05:03:52;101939.06;;;-7.66;79.53
70909;BME280;58554;52.006;5.926;2022-12-18T05:06:22;101942.56;;;-7.64;79.88
70909;BME280;58554;52.006;5.926;2022-12-18T05:08:48;101940.06;;;-7.62;79.54
70909;BME280;58554;52.006;5.926;2022-12-18T05:11:15;101950.38;;;-7.61;79.78
70909;BME280;58554;52.006;5.926;2022-12-18T05:13:42;101950.44;;;-7.59;79.75
70909;BME280;58554;52.006;5.926;2022-12-18T05:16:11;101965.91;;;-7.58;79.56
70909;BME280;58554;52.006;5.926;2022-12-18T05:18:39;101968.47;;;-7.58;79.45
70909;BME280;58554;52.006;5.926;2022-12-18T05:21:06;101968.47;;;-7.58;79.64
70909;BME280;58554;52.006;5.926;2022-12-18T05:23:38;101972.84;;;-7.55;79.56
70909;BME280;58554;52.006;5.926;2022-12-18T05:26:06;101987.41;;;-7.54;79.88
70909;BME280;58554;52.006;5.926;2022-12-18T05:28:34;101994.38;;;-7.52;79.81
70909;BME280;58554;52.006;5.926;2022-12-18T05:31:03;101986.72;;;-7.50;79.62
70909;BME280;58554;52.006;5.926;2022-12-18T05:33:32;101991.91;;;-7.48;79.53
70909;BME280;58554;52.006;5.926;2022-12-18T05:36:05;101997.13;;;-7.47;79.57
70909;BME280;58554;52.006;5.926;2022-12-18T05:38:37;102003.06;;;-7.48;79.61
70909;BME280;58554;52.006;5.926;2022-12-18T05:41:05;102017.66;;;-7.47;79.67
70909;BME280;58554;52.006;5.926;2022-12-18T05:43:33;102006.53;;;-7.47;79.72
70909;BME280;58554;52.006;5.926;2022-12-18T05:46:04;102006.56;;;-7.46;79.61
70909;BME280;58554;52.006;5.926;2022-12-18T05:48:31;102007.47;;;-7.44;79.62
70909;BME280;58554;52.006;5.926;2022-12-18T05:51:04;102003.19;;;-7.45;79.57
70909;BME280;58554;52.006;5.926;2022-12-18T05:53:32;102000.69;;;-7.43;79.58
70909;BME280;58554;52.006;5.926;2022-12-18T05:56:03;101997.28;;;-7.42;79.55
70909;BME280;58554;52.006;5.926;2022-12-18T05:58:32;101978.34;;;-7.44;79.50
70909;BME280;58554;52.006;5.926;2022-12-18T06:01:07;101981.00;;;-7.43;79.38
70909;BME280;58554;52.006;5.926;2022-12-18T06:03:35;101979.34;;;-7.41;79.57
70909;BME280;58554;52.006;5.926;2022-12-18T06:06:02;101968.22;;;-7.41;79.40
70909;BME280;58554;52.006;5.926;2022-12-18T06:08:29;101962.16;;;-7.42;79.57
70909;BME280;58554;52.006;5.926;2022-12-18T06:10:56;101957.00;;;-7.43;79.25
70909;BME280;58554;52.006;5.926;2022-12-18T06:13:25;101951.03;;;-7.42;79.53
70909;BME280;58554;52.006;5.926;2022-12-18T06:15:51;101950.22;;;-7.41;79.49
70909;BME280;58554;52.006;5.926;2022-12-18T06:18:18;101946.81;;;-7.40;79.75
70909;BME280;58554;52.006;5.926;2022-12-18T06:20:44;101955.41;;;-7.40;79.51
70909;BME280;58554;52.006;5.926;2022-12-18T06:23:11;101958.88;;;-7.38;79.63
70909;BME280;58554;52.006;5.926;2022-12-18T06:25:38;101958.09;;;-7.37;79.35
70909;BME280;58554;52.006;5.926;2022-12-18T06:28:05;101952.09;;;-7.37;79.52
70909;BME280;58554;52.006;5.926;2022-12-18T06:30:34;101953.00;;;-7.35;79.64
70909;BME280;58554;52.006;5.926;2022-12-18T06:33:01;101951.38;;;-7.33;79.61
70909;BME280;58554;52.006;5.926;2022-12-18T06:35:28;101936.75;;;-7.34;79.51
70909;BME280;58554;52.006;5.926;2022-12-18T06:37:54;101933.38;;;-7.33;79.50
70909;BME280;58554;52.006;5.926;2022-12-18T06:40:21;101929.00;;;-7.36;79.34
70909;BME280;58554;52.006;5.926;2022-12-18T06:42:47;101938.41;;;-7.36;79.24
70909;BME280;58554;52.006;5.926;2022-12-18T06:45:16;101937.41;;;-7.40;79.25
70909;BME280;58554;52.006;5.926;2022-12-18T06:47:46;101933.91;;;-7.42;79.25
70909;BME280;58554;52.006;5.926;2022-12-18T06:50:12;101926.22;;;-7.42;79.40
70909;BME280;58554;52.006;5.926;2022-12-18T06:52:39;101926.22;;;-7.42;79.52
70909;BME280;58554;52.006;5.926;2022-12-18T06:55:10;101916.84;;;-7.40;79.70
70909;BME280;58554;52.006;5.926;2022-12-18T06:57:37;101915.28;;;-7.36;79.56
70909;BME280;58554;52.006;5.926;2022-12-18T07:00:06;101910.25;;;-7.33;79.58
70909;BME280;58554;52.006;5.926;2022-12-18T07:02:34;101911.19;;;-7.31;79.73
70909;BME280;58554;52.006;5.926;2022-12-18T07:05:04;101907.72;;;-7.32;79.66
70909;BME280;58554;52.006;5.926;2022-12-18T07:07:33;101902.69;;;-7.28;79.55
70909;BME280;58554;52.006;5.926;2022-12-18T07:10:00;101909.53;;;-7.29;79.55
70909;BME280;58554;52.006;5.926;2022-12-18T07:12:27;101901.84;;;-7.29;79.62
70909;BME280;58554;52.006;5.926;2022-12-18T07:14:53;101900.13;;;-7.28;79.41
70909;BME280;58554;52.006;5.926;2022-12-18T07:17:20;101910.41;;;-7.28;79.51
70909;BME280;58554;52.006;5.926;2022-12-18T07:19:46;101913.91;;;-7.26;79.61
70909;BME280;58554;52.006;5.926;2022-12-18T07:22:15;101906.25;;;-7.25;79.70
70909;BME280;58554;52.006;5.926;2022-12-18T07:24:42;101912.41;;;-7.20;79.79
70909;BME280;58554;52.006;5.926;2022-12-18T07:27:08;101916.84;;;-7.16;79.88
70909;BME280;58554;52.006;5.926;2022-12-18T07:29:35;101916.97;;;-7.11;79.99
70909;BME280;58554;52.006;5.926;2022-12-18T07:32:01;101911.25;;;-7.04;80.24
70909;BME280;58554;52.006;5.926;2022-12-18T07:34:28;101909.63;;;-7.00;79.84
70909;BME280;58554;52.006;5.926;2022-12-18T07:36:54;101905.53;;;-6.95;80.29
70909;BME280;58554;52.006;5.926;2022-12-18T07:39:24;101904.78;;;-6.90;79.86
70909;BME280;58554;52.006;5.926;2022-12-18T07:41:50;101895.44;;;-6.87;79.81
70909;BME280;58554;52.006;5.926;2022-12-18T07:44:17;101892.91;;;-6.86;79.86
70909;BME280;58554;52.006;5.926;2022-12-18T07:46:43;101883.56;;;-6.84;79.93
70909;BME280;58554;52.006;5.926;2022-12-18T07:49:11;101875.03;;;-6.83;79.63
70909;BME280;58554;52.006;5.926;2022-12-18T07:51:38;101873.41;;;-6.79;79.70
70909;BME280;58554;52.006;5.926;2022-12-18T07:54:07;101865.69;;;-6.79;79.84
70909;BME280;58554;52.006;5.926;2022-12-18T07:56:39;101871.88;;;-6.74;79.91
70909;BME280;58554;52.006;5.926;2022-12-18T07:59:05;101863.44;;;-6.70;79.63
70909;BME280;58554;52.006;5.926;2022-12-18T08:01:33;101861.84;;;-6.65;80.10
70909;BME280;58554;52.006;5.926;2022-12-18T08:04:00;101858.56;;;-6.61;79.87
70909;BME280;58554;52.006;5.926;2022-12-18T08:06:26;101852.69;;;-6.57;79.65
70909;BME280;58554;52.006;5.926;2022-12-18T08:08:53;101855.38;;;-6.52;79.84
70909;BME280;58554;52.006;5.926;2022-12-18T08:11:23;101855.53;;;-6.47;79.67
70909;BME280;58554;52.006;5.926;2022-12-18T08:13:58;101852.25;;;-6.43;79.71
70909;BME280;58554;52.006;5.926;2022-12-18T08:16:25;101849.78;;;-6.39;79.77
70909;BME280;58554;52.006;5.926;2022-12-18T08:18:58;101841.38;;;-6.33;79.94
70909;BME280;58554;52.006;5.926;2022-12-18T08:21:30;101850.16;;;-6.26;79.76
70909;BME280;58554;52.006;5.926;2022-12-18T08:24:02;101839.16;;;-6.21;79.91
70909;BME280;58554;52.006;5.926;2022-12-18T08:26:37;101859.09;;;-6.14;79.90
70909;BME280;58554;52.006;5.926;2022-12-18T08:29:06;101856.72;;;-6.07;79.90
70909;BME280;58554;52.006;5.926;2022-12-18T08:31:33;101850.88;;;-6.00;79.65
70909;BME280;58554;52.006;5.926;2022-12-18T08:33:59;101841.66;;;-5.94;79.99
70909;BME280;58554;52.006;5.926;2022-12-18T08:36:26;101840.06;;;-5.89;79.82
70909;BME280;58554;52.006;5.926;2022-12-18T08:38:53;101834.97;;;-5.85;79.71
70909;BME280;58554;52.006;5.926;2022-12-18T08:41:20;101840.28;;;-5.79;79.84
70909;BME280;58554;52.006;5.926;2022-12-18T08:43:47;101848.25;;;-5.72;79.56
70909;BME280;58554;52.006;5.926;2022-12-18T08:46:21;101852.75;;;-5.63;79.80
70909;BME280;58554;52.006;5.926;2022-12-18T08:48:53;101850.44;;;-5.54;79.63
70909;BME280;58554;52.006;5.926;2022-12-18T08:51:21;101845.47;;;-5.46;79.63
70909;BME280;58554;52.006;5.926;2022-12-18T08:53:50;101845.69;;;-5.38;79.69
70909;BME280;58554;52.006;5.926;2022-12-18T08:56:16;101847.44;;;-5.36;79.63
70909;BME280;58554;52.006;5.926;2022-12-18T08:58:43;101848.47;;;-5.31;79.95
70909;BME280;58554;52.006;5.926;2022-12-18T09:01:11;101852.00;;;-5.25;79.68
70909;BME280;58554;52.006;5.926;2022-12-18T09:03:42;101835.78;;;-5.21;79.66
70909;BME280;58554;52.006;5.926;2022-12-18T09:06:08;101843.59;;;-5.18;79.72
70909;BME280;58554;52.006;5.926;2022-12-18T09:08:39;101845.44;;;-5.14;79.77
70909;BME280;58554;52.006;5.926;2022-12-18T09:11:12;101845.53;;;-5.10;79.81
70909;BME280;58554;52.006;5.926;2022-12-18T09:13:40;101850.91;;;-5.00;79.61
70909;BME280;58554;52.006;5.926;2022-12-18T09:16:06;101844.13;;;-4.97;79.77
70909;BME280;58554;52.006;5.926;2022-12-18T09:18:33;101845.16;;;-4.89;80.01
70909;BME280;58554;52.006;5.926;2022-12-18T09:21:07;101830.75;;;-4.80;79.60
70909;BME280;58554;52.006;5.926;2022-12-18T09:23:35;101836.09;;;-4.73;79.61
70909;BME280;58554;52.006;5.926;2022-12-18T09:26:01;101826.78;;;-4.66;79.77
70909;BME280;58554;52.006;5.926;2022-12-18T09:28:30;101819.22;;;-4.57;79.68
70909;BME280;58554;52.006;5.926;2022-12-18T09:30:57;101830.63;;;-4.47;79.60
70909;BME280;58554;52.006;5.926;2022-12-18T09:33:28;101834.28;;;-4.37;79.49
70909;BME280;58554;52.006;5.926;2022-12-18T09:35:54;101838.75;;;-4.29;79.56
70909;BME280;58554;52.006;5.926;2022-12-18T09:38:24;101829.47;;;-4.19;79.54
70909;BME280;58554;52.006;5.926;2022-12-18T09:40:52;101833.97;;;-4.10;79.50
70909;BME280;58554;52.006;5.926;2022-12-18T09:43:28;101823.81;;;-4.01;79.46
70909;BME280;58554;52.006;5.926;2022-12-18T09:46:06;101830.00;;;-3.93;79.41
70909;BME280;58554;52.006;5.926;2022-12-18T09:48:41;101830.16;;;-3.83;79.41
70909;BME280;58554;52.006;5.926;2022-12-18T09:51:14;101821.75;;;-3.75;79.31
70909;BME280;58554;52.006;5.926;2022-12-18T09:53:52;101816.72;;;-3.66;79.26
70909;BME280;58554;52.006;5.926;2022-12-18T09:56:25;101815.09;;;-3.60;79.10
70909;BME280;58554;52.006;5.926;2022-12-18T09:58:58;101806.63;;;-3.53;78.87
70909;BME280;58554;52.006;5.926;2022-12-18T10:01:27;101802.38;;;-3.48;78.75
70909;BME280;58554;52.006;5.926;2022-12-18T10:04:00;101799.91;;;-3.42;78.07
70909;BME280;58554;52.006;5.926;2022-12-18T10:06:32;101803.44;;;-3.37;78.29
70909;BME280;58554;52.006;5.926;2022-12-18T10:09:11;101790.59;;;-3.32;78.22
70909;BME280;58554;52.006;5.926;2022-12-18T10:12:06;101786.38;;;-3.26;77.96
70909;BME280;58554;52.006;5.926;2022-12-18T10:14:46;101792.50;;;-3.20;78.16
70909;BME280;58554;52.006;5.926;2022-12-18T10:17:25;101790.03;;;-3.14;77.73
70909;BME280;58554;52.006;5.926;2022-12-18T10:20:22;101783.19;;;-3.09;77.33
70909;BME280;58554;52.006;5.926;2022-12-18T10:23:05;101784.16;;;-3.04;77.45
70909;BME280;58554;52.006;5.926;2022-12-18T10:25:55;101773.88;;;-2.98;77.19
70909;BME280;58554;52.006;5.926;2022-12-18T10:28:31;101770.53;;;-2.91;77.48
70909;BME280;58554;52.006;5.926;2022-12-18T10:31:05;101765.47;;;-2.83;77.72
70909;BME280;58554;52.006;5.926;2022-12-18T10:33:33;101764.69;;;-2.76;76.91
70909;BME280;58554;52.006;5.926;2022-12-18T10:36:00;101759.59;;;-2.70;77.24
70909;BME280;58554;52.006;5.926;2022-12-18T10:38:28;101760.53;;;-2.63;77.17
70909;BME280;58554;52.006;5.926;2022-12-18T10:41:04;101755.44;;;-2.57;77.50
70909;BME280;58554;52.006;5.926;2022-12-18T10:43:34;101749.47;;;-2.51;77.61
70909;BME280;58554;52.006;5.926;2022-12-18T10:46:19;101748.63;;;-2.49;76.06
70909;BME280;58554;52.006;5.926;2022-12-18T10:48:53;101746.09;;;-2.46;76.92
70909;BME280;58554;52.006;5.926;2022-12-18T10:51:23;101740.94;;;-2.43;76.85
70909;BME280;58554;52.006;5.926;2022-12-18T10:54:04;101733.22;;;-2.38;76.94
70909;BME280;58554;52.006;5.926;2022-12-18T10:56:42;101732.41;;;-2.34;76.66
70909;BME280;58554;52.006;5.926;2022-12-18T10:59:14;101730.72;;;-2.30;76.07
70909;BME280;58554;52.006;5.926;2022-12-18T11:01:53;101734.22;;;-2.28;76.41
70909;BME280;58554;52.006;5.926;2022-12-18T11:04:24;101729.94;;;-2.23;76.75
70909;BME280;58554;52.006;5.926;2022-12-18T11:06:55;101730.84;;;-2.19;75.98
70909;BME280;58554;52.006;5.926;2022-12-18T11:09:25;101726.53;;;-2.19;76.05
70909;BME280;58554;52.006;5.926;2022-12-18T11:11:57;101729.16;;;-2.16;76.12
70909;BME280;58554;52.006;5.926;2022-12-18T11:14:30;101711.91;;;-2.14;74.89
70909;BME280;58554;52.006;5.926;2022-12-18T11:17:00;101713.63;;;-2.13;76.26
70909;BME280;58554;52.006;5.926;2022-12-18T11:19:33;101721.47;;;-2.07;75.92
70909;BME280;58554;52.006;5.926;2022-12-18T11:22:04;101719.75;;;-2.05;75.97
70909;BME280;58554;52.006;5.926;2022-12-18T11:24:52;101708.56;;;-2.00;75.75
70909;BME280;58554;52.006;5.926;2022-12-18T11:27:25;101704.31;;;-1.97;75.97
70909;BME280;58554;52.006;5.926;2022-12-18T11:30:07;101696.56;;;-1.92;76.03
70909;BME280;58554;52.006;5.926;2022-12-18T11:32:37;101687.97;;;-1.88;75.57
70909;BME280;58554;52.006;5.926;2022-12-18T11:35:15;101673.28;;;-1.86;74.69
70909;BME280;58554;52.006;5.926;2022-12-18T11:37:49;101672.47;;;-1.82;74.54
70909;BME280;58554;52.006;5.926;2022-12-18T11:40:25;101677.69;;;-1.79;74.81
70909;BME280;58554;52.006;5.926;2022-12-18T11:43:04;101679.44;;;-1.75;75.29
70909;BME280;58554;52.006;5.926;2022-12-18T11:45:41;101684.66;;;-1.70;75.37
70909;BME280;58554;52.006;5.926;2022-12-18T11:48:18;101682.94;;;-1.68;74.42
70909;BME280;58554;52.006;5.926;2022-12-18T11:50:51;101683.84;;;-1.66;73.91
70909;BME280;58554;52.006;5.926;2022-12-18T11:53:20;101688.19;;;-1.61;74.21
70909;BME280;58554;52.006;5.926;2022-12-18T11:55:59;101676.97;;;-1.56;74.36
70909;BME280;58554;52.006;5.926;2022-12-18T11:58:46;101664.03;;;-1.50;74.78
70909;BME280;58554;52.006;5.926;2022-12-18T12:01:31;101657.19;;;-1.45;74.58
70909;BME280;58554;52.006;5.926;2022-12-18T12:04:38;101650.28;;;-1.40;73.79
70909;BME280;58554;52.006;5.926;2022-12-18T12:07:24;101649.44;;;-1.36;72.86
70909;BME280;58554;52.006;5.926;2022-12-18T12:10:39;101641.69;;;-1.33;73.49
70909;BME280;58554;52.006;5.926;2022-12-18T12:13:37;101633.94;;;-1.25;73.73
70909;BME280;58554;52.006;5.926;2022-12-18T12:16:28;101620.13;;;-1.23;73.83
70909;BME280;58554;52.006;5.926;2022-12-18T12:19:25;101623.59;;;-1.19;74.27
70909;BME280;58554;52.006;5.926;2022-12-18T12:22:20;101621.03;;;-1.16;74.35
70909;BME280;58554;52.006;5.926;2022-12-18T12:25:28;101614.13;;;-1.14;73.63
70909;BME280;58554;52.006;5.926;2022-12-18T12:28:12;101618.44;;;-1.13;72.37
70909;BME280;58554;52.006;5.926;2022-12-18T12:31:14;101626.22;;;-1.14;72.52
70909;BME280;58554;52.006;5.926;2022-12-18T12:34:15;101625.38;;;-1.10;73.30
70909;BME280;58554;52.006;5.926;2022-12-18T12:37:03;101619.31;;;-1.09;73.50
70909;BME280;58554;52.006;5.926;2022-12-18T12:39:42;101616.72;;;-1.05;72.93
70909;BME280;58554;52.006;5.926;2022-12-18T12:42:20;101608.97;;;-1.06;71.52
70909;BME280;58554;52.006;5.926;2022-12-18T12:45:01;101601.19;;;-1.06;72.68
70909;BME280;58554;52.006;5.926;2022-12-18T12:47:38;101594.25;;;-1.04;72.80
70909;BME280;58554;52.006;5.926;2022-12-18T12:50:14;101601.19;;;-1.06;71.21
70909;BME280;58554;52.006;5.926;2022-12-18T12:52:59;101595.09;;;-1.07;71.92
70909;BME280;58554;52.006;5.926;2022-12-18T12:55:32;101576.06;;;-1.10;70.98
70909;BME280;58554;52.006;5.926;2022-12-18T12:58:05;101587.31;;;-1.07;71.90
70909;BME280;58554;52.006;5.926;2022-12-18T13:00:46;101574.34;;;-1.07;72.05
70909;BME280;58554;52.006;5.926;2022-12-18T13:03:34;101574.34;;;-1.05;71.46
70909;BME280;58554;52.006;5.926;2022-12-18T13:06:16;101570.88;;;-1.06;72.01
70909;BME280;58554;52.006;5.926;2022-12-18T13:08:59;101555.34;;;-1.04;72.23
70909;BME280;58554;52.006;5.926;2022-12-18T13:11:35;101557.94;;;-1.04;71.45
70909;BME280;58554;52.006;5.926;2022-12-18T13:14:04;101561.38;;;-1.04;71.70
70909;BME280;58554;52.006;5.926;2022-12-18T13:16:31;101560.50;;;-1.06;70.92